createdAt,value
2022-10-09T00:00:10.604Z,84.34
2022-10-09T00:05:15.815Z,84.11
2022-10-09T00:10:19.138Z,84.16
2022-10-09T00:15:21.411Z,84.41
2022-10-09T00:20:28.076Z,84.52
2022-10-09T00:25:40.334Z,85.27
2022-10-09T00:30:43.238Z,85.45
2022-10-09T00:35:48.769Z,85.46
2022-10-09T00:40:53.304Z,85.78
2022-10-09T00:45:58.639Z,85.77
2022-10-09T00:51:03.295Z,86.06
2022-10-09T00:56:06.792Z,86.51
2022-10-09T01:06:54.926Z,86.95
2022-10-09T01:12:19.031Z,86.73
2022-10-09T01:17:26.440Z,87.31
2022-10-09T01:22:46.693Z,87.72
2022-10-09T01:27:49.659Z,88.09
2022-10-09T01:32:55.280Z,88.11
2022-10-09T01:43:14.045Z,89.03
2022-10-09T01:48:27.570Z,89.17
2022-10-09T01:53:30.274Z,89.90
2022-10-09T01:58:49.881Z,90.23
2022-10-09T02:03:55.205Z,89.51
2022-10-09T02:08:58.770Z,89.95
2022-10-09T02:14:01.108Z,90.40
2022-10-09T02:19:06.396Z,90.13
2022-10-09T02:24:16.462Z,90.39
2022-10-09T02:29:18.816Z,90.78
2022-10-09T02:34:29.447Z,90.52
2022-10-09T02:39:31.818Z,90.26
2022-10-09T02:44:34.815Z,90.32
2022-10-09T02:49:40.555Z,90.54
2022-10-09T02:54:43.757Z,90.04
2022-10-09T02:59:46.015Z,90.31
2022-10-09T03:04:48.252Z,90.56
2022-10-09T03:09:53.003Z,90.30
2022-10-09T03:15:00.046Z,90.72
2022-10-09T03:20:02.310Z,91.30
2022-10-09T03:25:04.768Z,91.46
2022-10-09T03:30:07.362Z,91.78
2022-10-09T03:35:09.727Z,92.73
2022-10-09T03:40:12.351Z,92.96
2022-10-09T03:45:20.307Z,93.68
2022-10-09T03:55:49.843Z,93.76
2022-10-09T04:00:54.359Z,93.23
2022-10-09T04:05:56.666Z,93.52
2022-10-09T04:11:01.273Z,93.61
2022-10-09T04:16:05.597Z,93.50
2022-10-09T04:21:09.555Z,94.18
2022-10-09T04:26:15.239Z,93.65
2022-10-09T04:31:22.595Z,93.25
2022-10-09T04:36:31.544Z,93.50
2022-10-09T04:41:39.721Z,93.63
2022-10-09T04:46:42.084Z,93.44
2022-10-09T04:51:49.510Z,94.61
2022-10-09T04:56:51.694Z,94.77
2022-10-09T05:01:54.412Z,94.90
2022-10-09T05:12:13.855Z,94.78
2022-10-09T05:17:17.940Z,94.82
2022-10-09T05:22:22.957Z,94.72
2022-10-09T05:27:25.229Z,94.49
2022-10-09T05:32:28.343Z,94.52
2022-10-09T05:37:33.493Z,93.97
2022-10-09T05:42:37.382Z,93.41
2022-10-09T05:47:49.776Z,93.72
2022-10-09T05:52:52.812Z,92.81
2022-10-09T05:57:55.077Z,92.28
2022-10-09T06:03:00.516Z,92.12
2022-10-09T06:08:14.503Z,90.51
2022-10-09T06:13:16.879Z,91.98
2022-10-09T06:18:19.222Z,91.12
2022-10-09T06:23:24.415Z,88.51
2022-10-09T06:28:28.345Z,87.46
2022-10-09T06:33:43.163Z,86.81
2022-10-09T06:38:49.303Z,86.45
2022-10-09T06:43:59.812Z,85.45
2022-10-09T06:49:08.419Z,84.33
2022-10-09T06:54:14.151Z,83.69
2022-10-09T06:59:16.454Z,82.96
2022-10-09T07:04:22.177Z,80.70
2022-10-09T07:09:30.267Z,80.09
2022-10-09T07:14:32.529Z,78.48
2022-10-09T07:19:35.275Z,77.27
2022-10-09T07:24:37.807Z,78.52
2022-10-09T07:29:46.318Z,77.47
2022-10-09T07:34:50.767Z,76.56
2022-10-09T07:39:57.358Z,75.65
2022-10-09T07:44:59.600Z,74.85
2022-10-09T07:50:06.046Z,74.85
2022-10-09T07:55:09.873Z,72.73
2022-10-09T08:00:16.306Z,71.63
2022-10-09T08:05:22.561Z,70.78
2022-10-09T08:10:28.089Z,66.47
2022-10-09T08:15:37.314Z,67.02
2022-10-09T08:20:43.805Z,68.22
2022-10-09T08:25:47.709Z,68.55
2022-10-09T08:30:49.983Z,67.70
2022-10-09T08:35:52.600Z,67.60
2022-10-09T08:41:04.979Z,66.01
2022-10-09T08:46:20.755Z,65.63
2022-10-09T08:51:25.167Z,64.42
2022-10-09T08:56:36.429Z,63.67
2022-10-09T09:01:48.440Z,62.02
2022-10-09T09:07:05.945Z,59.34
2022-10-09T09:12:34.606Z,60.15
2022-10-09T09:17:46.885Z,59.87
2022-10-09T09:22:50.305Z,59.83
2022-10-09T09:27:55.185Z,60.95
2022-10-09T09:33:18.847Z,59.10
2022-10-09T09:38:21.216Z,59.32
2022-10-09T09:43:25.463Z,58.07
2022-10-09T09:48:41.497Z,59.70
2022-10-09T09:53:50.198Z,60.19
2022-10-09T09:58:53.369Z,60.22
2022-10-09T10:04:00.019Z,58.97
2022-10-09T10:09:06.236Z,58.11
2022-10-09T10:14:09.439Z,57.64
2022-10-09T10:19:21.667Z,58.31
2022-10-09T10:24:27.941Z,56.08
2022-10-09T10:29:45.653Z,55.37
2022-10-09T10:34:52.599Z,56.36
2022-10-09T10:40:14.523Z,58.90
2022-10-09T10:45:19.484Z,58.89
2022-10-09T10:50:32.276Z,56.41
2022-10-09T10:55:37.282Z,56.15
2022-10-09T11:00:54.225Z,57.90
2022-10-09T11:06:17.849Z,57.72
2022-10-09T11:18:34.558Z,56.00
2022-10-09T11:23:50.059Z,55.14
2022-10-09T11:28:54.806Z,56.34
2022-10-09T11:34:03.610Z,55.47
2022-10-09T11:39:13.411Z,54.95
2022-10-09T11:44:19.679Z,53.85
2022-10-09T11:49:26.258Z,54.72
2022-10-09T11:54:29.055Z,54.89
2022-10-09T11:59:34.019Z,53.82
2022-10-09T12:04:54.445Z,50.50
2022-10-09T12:10:04.383Z,52.03
2022-10-09T12:15:27.289Z,48.88
2022-10-09T12:20:32.463Z,50.87
2022-10-09T12:25:41.025Z,50.84
2022-10-09T12:30:48.525Z,50.09
2022-10-09T12:36:12.997Z,49.97
2022-10-09T12:41:43.475Z,48.18
2022-10-09T12:46:45.856Z,48.25
2022-10-09T12:51:55.381Z,45.16
2022-10-09T12:57:04.236Z,42.62
2022-10-09T13:02:11.288Z,43.58
2022-10-09T13:07:19.851Z,43.16
2022-10-09T13:12:28.559Z,43.09
2022-10-09T13:17:33.671Z,43.34
2022-10-09T13:22:36.149Z,41.72
2022-10-09T13:27:39.410Z,42.87
2022-10-09T13:32:42.335Z,43.25
2022-10-09T13:37:45.421Z,44.09
2022-10-09T13:42:51.548Z,45.21
2022-10-09T13:47:54.975Z,46.51
2022-10-09T13:52:57.214Z,46.53
2022-10-09T13:58:01.694Z,47.04
2022-10-09T14:03:06.401Z,45.99
2022-10-09T14:08:10.096Z,47.37
2022-10-09T14:13:14.681Z,49.46
2022-10-09T14:18:29.909Z,50.43
2022-10-09T14:23:32.192Z,50.19
2022-10-09T14:28:35.456Z,51.83
2022-10-09T14:33:37.809Z,54.53
2022-10-09T14:38:41.133Z,57.88
2022-10-09T14:43:45.605Z,61.46
2022-10-09T14:48:50.544Z,64.34
2022-10-09T14:53:58.258Z,65.17
2022-10-09T14:59:05.535Z,63.75
2022-10-09T15:04:09.155Z,64.16
2022-10-09T15:09:11.471Z,63.29
2022-10-09T15:20:36.859Z,63.54
2022-10-09T15:25:40.436Z,64.38
2022-10-09T15:30:48.791Z,65.08
2022-10-09T15:35:55.672Z,65.30
2022-10-09T15:40:57.896Z,64.74
2022-10-09T15:52:54.873Z,64.30
2022-10-09T15:57:57.083Z,64.65
2022-10-09T16:03:00.353Z,65.23
2022-10-09T16:08:02.567Z,64.26
2022-10-09T16:13:07.038Z,64.00
2022-10-09T16:18:10.408Z,64.49
2022-10-09T16:23:14.047Z,65.19
2022-10-09T16:28:19.311Z,65.58
2022-10-09T16:33:21.943Z,65.53
2022-10-09T16:38:25.021Z,66.27
2022-10-09T16:43:30.147Z,66.76
2022-10-09T16:48:37.130Z,66.85
2022-10-09T16:53:39.922Z,67.39
2022-10-09T16:58:42.928Z,68.56
2022-10-09T17:03:46.386Z,69.48
2022-10-09T17:08:53.627Z,70.02
2022-10-09T17:14:01.162Z,71.11
2022-10-09T17:19:07.090Z,71.72
2022-10-09T17:24:13.009Z,70.36
2022-10-09T17:29:16.284Z,70.04
2022-10-09T17:34:23.034Z,69.30
2022-10-09T17:39:28.455Z,69.01
2022-10-09T17:44:32.091Z,69.10
2022-10-09T17:49:44.278Z,68.47
2022-10-09T17:54:46.842Z,68.09
2022-10-09T17:59:49.433Z,66.85
2022-10-09T18:04:57.341Z,67.07
2022-10-09T18:10:03.799Z,67.09
2022-10-09T18:15:13.861Z,66.10
2022-10-09T18:20:17.006Z,66.86
2022-10-09T18:25:19.369Z,66.89
2022-10-09T18:30:23.450Z,67.25
2022-10-09T18:35:30.411Z,67.14
2022-10-09T18:40:39.795Z,67.65
2022-10-09T18:45:46.054Z,67.91
2022-10-09T18:50:48.737Z,69.11
2022-10-09T18:55:53.132Z,70.10
2022-10-09T19:00:55.420Z,70.47
2022-10-09T19:05:57.823Z,70.07
2022-10-09T19:11:00.239Z,69.96
2022-10-09T19:16:06.303Z,70.07
2022-10-09T19:21:16.063Z,70.71
2022-10-09T19:26:19.917Z,70.83
2022-10-09T19:31:28.102Z,70.99
2022-10-09T19:36:34.538Z,71.43
2022-10-09T19:41:37.990Z,71.55
2022-10-09T19:46:49.937Z,71.90
2022-10-09T19:51:52.148Z,71.68
2022-10-09T19:56:54.429Z,71.20
2022-10-09T20:01:57.750Z,70.51
2022-10-09T20:07:00.039Z,71.40
2022-10-09T20:12:04.300Z,70.57
2022-10-09T20:17:10.638Z,71.24
2022-10-09T20:22:12.927Z,71.34
2022-10-09T20:27:15.337Z,71.73
2022-10-09T20:32:21.594Z,71.61
2022-10-09T20:37:23.966Z,72.03
2022-10-09T20:42:29.088Z,72.31
2022-10-09T20:47:31.409Z,71.31
2022-10-09T20:52:33.770Z,70.94
2022-10-09T20:57:36.896Z,68.97
2022-10-09T21:02:39.175Z,68.51
2022-10-09T21:07:44.227Z,66.15
2022-10-09T21:12:47.501Z,64.83
2022-10-09T21:17:50.025Z,65.38
2022-10-09T21:22:58.084Z,65.87
2022-10-09T21:28:03.757Z,65.24
2022-10-09T21:33:06.819Z,66.21
2022-10-09T21:38:10.614Z,67.51
2022-10-09T21:43:16.601Z,68.99
2022-10-09T21:48:19.646Z,69.02
2022-10-09T21:53:21.848Z,69.38
2022-10-09T21:58:24.120Z,68.96
2022-10-09T22:03:35.782Z,69.67
2022-10-09T22:08:43.635Z,69.73
2022-10-09T22:13:48.061Z,69.99
2022-10-09T22:18:50.361Z,69.91
2022-10-09T22:23:56.607Z,70.45
2022-10-09T22:28:58.989Z,69.79
2022-10-09T22:34:01.704Z,70.25
2022-10-09T22:39:05.674Z,70.31
2022-10-09T22:44:19.292Z,70.20
2022-10-09T22:49:21.562Z,71.17
2022-10-09T22:54:26.232Z,72.15
2022-10-09T22:59:28.707Z,72.82
2022-10-09T23:04:31.846Z,73.79
2022-10-09T23:09:46.861Z,73.89
2022-10-09T23:14:52.032Z,74.39
2022-10-09T23:19:55.615Z,74.59
2022-10-09T23:25:00.500Z,74.98
2022-10-09T23:30:02.817Z,74.88
2022-10-09T23:35:09.555Z,75.35
2022-10-09T23:40:13.353Z,75.51
2022-10-09T23:45:18.617Z,75.75
2022-10-09T23:50:20.864Z,75.77
2022-10-09T23:55:25.642Z,76.62
